Terminal Aerodrome Forecast
Issued by NWS Memphis, TN

Home | Current Version | Previous Version | Text Only | Print | Product List | Glossary On
Versions: 1 2 3 4 5 6 7 8 9 10 11 12 13 14 15
000
FTUS44 KMEG 232325
TAFJBR
TAF
KJBR 232325Z 2400/2424 VRB03KT P6SM VCTS SCT050CB BKN150
     FM240300 VRB03KT P6SM VCSH SCT040 BKN250
     FM240600 VRB03KT P6SM BKN200
      TEMPO 2410/2413 6SM HZ
     FM241600 18006KT P6SM SCT045=

USA.gov is the U.S. government's official web portal to all federal, state and local government web resources and services.